Terminal Aerodrome Forecast
Issued by NWS Shreveport, LA

Home | Current Version | Previous Version | Text Only | Print | Product List | Glossary On
Versions: 1 2 3 4 5 6 7 8 9 10 11 12 13 14
366
FTUS44 KSHV 271151
TAFELD
TAF
KELD 271151Z 2712/2812 11007KT P6SM VCSH BKN005 OVC035
      TEMPO 2712/2715 VRB07KT 4SM SHRA BR BKN003 OVC035
     FM271800 13006KT P6SM VCTS BKN020 OVC030CB
     FM272100 14008KT P6SM VCTS BKN025 OVC035CB
     FM280000 15009KT P6SM BKN035 OVC050
     FM280300 17007KT P6SM OVC015
     FM280800 19007KT 2SM BR OVC010=

USA.gov is the U.S. government's official web portal to all federal, state and local government web resources and services.